createdAt,value
2017-11-05T00:02:20.997Z,82.22
2017-11-05T00:04:50.203Z,82.08
2017-11-05T00:07:19.424Z,82.46
2017-11-05T00:09:48.643Z,82.53
2017-11-05T00:12:17.931Z,82.49
2017-11-05T00:14:47.899Z,82.42
2017-11-05T00:17:17.177Z,82.39
2017-11-05T00:19:46.422Z,82.53
2017-11-05T00:22:15.645Z,82.52
2017-11-05T00:24:45.636Z,82.51
2017-11-05T00:27:15.651Z,82.56
2017-11-05T00:29:45.658Z,82.74
2017-11-05T00:32:14.888Z,83.03
2017-11-05T00:34:44.892Z,83.20
2017-11-05T00:37:14.088Z,83.77
2017-11-05T00:39:44.108Z,83.82
2017-11-05T00:42:13.329Z,83.84
2017-11-05T00:44:42.547Z,84.03
2017-11-05T00:47:11.743Z,84.14
2017-11-05T00:49:40.971Z,84.23
2017-11-05T00:52:10.187Z,84.24
2017-11-05T00:54:40.209Z,84.08
2017-11-05T00:57:10.215Z,84.16
2017-11-05T00:59:39.437Z,84.07
2017-11-05T01:02:09.441Z,83.94
2017-11-05T01:04:39.411Z,84.79
2017-11-05T01:07:08.628Z,85.11
2017-11-05T01:09:37.844Z,85.31
2017-11-05T01:12:07.072Z,85.29
2017-11-05T01:14:36.295Z,85.55
2017-11-05T01:17:05.541Z,85.18
2017-11-05T01:19:34.736Z,85.66
2017-11-05T01:22:03.980Z,86.34
2017-11-05T01:24:33.229Z,86.34
2017-11-05T01:27:02.470Z,86.63
2017-11-05T01:29:31.775Z,86.90
2017-11-05T01:32:00.969Z,87.21
2017-11-05T01:34:30.224Z,87.65
2017-11-05T01:37:00.203Z,87.60
2017-11-05T01:39:30.202Z,87.77
2017-11-05T01:41:59.408Z,87.86
2017-11-05T01:44:28.585Z,88.07
2017-11-05T01:46:57.807Z,88.11
2017-11-05T01:49:27.012Z,88.25
2017-11-05T01:51:56.255Z,88.16
2017-11-05T01:54:26.236Z,88.30
2017-11-05T01:56:56.992Z,88.49
2017-11-05T01:59:26.204Z,88.78
2017-11-05T02:01:56.182Z,88.85
2017-11-05T02:04:25.372Z,88.93
2017-11-05T02:06:54.637Z,88.82
2017-11-05T02:09:23.815Z,88.80
2017-11-05T02:11:53.849Z,88.72
2017-11-05T02:14:23.144Z,88.64
2017-11-05T02:16:52.357Z,88.82
2017-11-05T02:19:21.591Z,88.86
2017-11-05T02:21:50.816Z,88.92
2017-11-05T02:24:20.930Z,88.82
2017-11-05T02:26:50.896Z,88.95
2017-11-05T02:29:20.122Z,88.76
2017-11-05T02:31:49.344Z,88.83
2017-11-05T02:34:19.323Z,88.47
2017-11-05T02:36:48.519Z,88.66
2017-11-05T02:39:18.765Z,88.63
2017-11-05T02:41:47.995Z,88.88
2017-11-05T02:44:17.227Z,89.13
2017-11-05T02:46:46.424Z,89.08
2017-11-05T02:49:15.632Z,88.92
2017-11-05T02:51:44.842Z,89.03
2017-11-05T02:54:14.085Z,89.47
2017-11-05T02:56:43.307Z,89.31
2017-11-05T02:59:12.516Z,89.42
2017-11-05T03:01:41.736Z,89.57
2017-11-05T03:04:10.944Z,89.72
2017-11-05T03:06:40.199Z,89.64
2017-11-05T03:09:09.395Z,89.44
2017-11-05T03:11:38.604Z,89.29
2017-11-05T03:14:07.824Z,89.07
2017-11-05T03:16:37.019Z,89.46
2017-11-05T03:19:06.217Z,88.60
2017-11-05T03:21:35.440Z,88.26
2017-11-05T03:24:05.425Z,89.46
2017-11-05T03:26:34.648Z,89.83
2017-11-05T03:29:04.617Z,90.00
2017-11-05T03:31:33.825Z,90.08
2017-11-05T03:34:03.019Z,89.48
2017-11-05T03:36:32.251Z,88.83
2017-11-05T03:39:02.220Z,88.66
2017-11-05T03:41:31.508Z,88.65
2017-11-05T03:44:00.827Z,88.25
2017-11-05T03:46:30.052Z,88.05
2017-11-05T03:48:59.252Z,88.17
2017-11-05T03:51:28.513Z,88.23
2017-11-05T03:53:57.711Z,88.25
2017-11-05T03:56:26.962Z,88.33
2017-11-05T03:58:56.979Z,88.36
2017-11-05T04:01:26.986Z,88.45
2017-11-05T04:03:57.001Z,88.48
2017-11-05T04:06:26.191Z,88.59
2017-11-05T04:08:55.408Z,88.59
2017-11-05T04:11:24.961Z,88.55
2017-11-05T04:13:54.155Z,88.56
2017-11-05T04:16:23.380Z,88.57
2017-11-05T04:18:52.644Z,88.55
2017-11-05T04:21:21.852Z,88.65
2017-11-05T04:23:51.123Z,88.83
2017-11-05T04:26:20.275Z,88.92
2017-11-05T04:28:50.992Z,89.01
2017-11-05T04:31:20.266Z,89.06
2017-11-05T04:33:49.480Z,89.11
2017-11-05T04:36:18.687Z,89.22
2017-11-05T04:38:47.947Z,89.21
2017-11-05T04:41:17.156Z,89.26
2017-11-05T04:43:46.376Z,89.24
2017-11-05T04:46:16.960Z,89.31
2017-11-05T04:48:47.217Z,89.25
2017-11-05T04:51:16.431Z,89.21
2017-11-05T04:53:45.635Z,89.22
2017-11-05T04:56:15.625Z,89.25
2017-11-05T04:58:44.838Z,89.23
2017-11-05T05:01:14.108Z,89.12
2017-11-05T05:03:43.300Z,89.11
2017-11-05T05:06:12.520Z,89.14
2017-11-05T05:08:41.726Z,89.19
2017-11-05T05:11:10.939Z,89.13
2017-11-05T05:13:40.140Z,89.13
2017-11-05T05:16:09.341Z,89.20
2017-11-05T05:18:38.542Z,89.28
2017-11-05T05:21:07.747Z,89.38
2017-11-05T05:23:37.708Z,89.27
2017-11-05T05:26:06.920Z,89.07
2017-11-05T05:28:36.127Z,89.09
2017-11-05T05:31:05.360Z,89.18
2017-11-05T05:33:35.455Z,89.33
2017-11-05T05:36:04.723Z,89.40
2017-11-05T05:38:33.957Z,88.89
2017-11-05T05:41:03.156Z,88.93
2017-11-05T05:43:32.376Z,89.15
2017-11-05T05:46:01.581Z,89.38
2017-11-05T05:48:30.784Z,89.60
2017-11-05T05:51:00.107Z,89.55
2017-11-05T05:53:29.316Z,89.26
2017-11-05T05:55:58.539Z,89.28
2017-11-05T05:58:27.748Z,89.41
2017-11-05T06:00:57.748Z,89.44
2017-11-05T06:03:26.968Z,89.61
2017-11-05T06:05:56.164Z,89.44
2017-11-05T06:08:26.144Z,89.51
2017-11-05T06:10:55.449Z,89.89
2017-11-05T06:13:25.432Z,89.76
2017-11-05T06:15:54.644Z,89.64
2017-11-05T06:18:23.859Z,90.69
2017-11-05T06:20:53.092Z,90.89
2017-11-05T06:23:23.075Z,90.98
2017-11-05T06:25:52.328Z,91.58
2017-11-05T06:28:21.545Z,92.18
2017-11-05T06:30:50.902Z,92.08
2017-11-05T06:33:20.877Z,92.20
2017-11-05T06:35:50.121Z,92.89
2017-11-05T06:38:19.357Z,92.77
2017-11-05T06:40:48.575Z,91.99
2017-11-05T06:43:17.782Z,91.67
2017-11-05T06:45:46.977Z,92.03
2017-11-05T06:48:16.164Z,91.77
2017-11-05T06:50:45.387Z,91.86
2017-11-05T06:53:14.580Z,92.84
2017-11-05T06:55:43.789Z,92.79
2017-11-05T06:58:13.758Z,92.65
2017-11-05T07:00:43.007Z,92.71
2017-11-05T07:03:13.060Z,93.06
2017-11-05T07:05:42.266Z,92.39
2017-11-05T07:08:11.464Z,92.48
2017-11-05T07:10:40.663Z,93.19
2017-11-05T07:13:09.915Z,93.49
2017-11-05T07:15:39.136Z,92.74
2017-11-05T07:18:08.360Z,92.87
2017-11-05T07:20:37.552Z,92.92
2017-11-05T07:23:06.828Z,92.19
2017-11-05T07:25:36.042Z,92.39
2017-11-05T07:28:05.240Z,92.06
2017-11-05T07:30:34.463Z,92.10
2017-11-05T07:33:03.672Z,91.46
2017-11-05T07:35:32.883Z,90.77
2017-11-05T07:38:02.104Z,90.15
2017-11-05T07:40:32.145Z,90.00
2017-11-05T07:43:01.337Z,89.97
2017-11-05T07:45:30.571Z,90.87
2017-11-05T07:47:59.759Z,91.05
2017-11-05T07:50:29.094Z,91.92
2017-11-05T07:52:59.071Z,91.62
2017-11-05T07:55:28.293Z,91.25
2017-11-05T07:57:57.509Z,89.91
2017-11-05T08:00:26.735Z,89.85
2017-11-05T08:02:55.930Z,89.19
2017-11-05T08:05:25.123Z,88.98
2017-11-05T08:07:54.385Z,90.42
2017-11-05T08:10:23.583Z,90.33
2017-11-05T08:12:52.826Z,90.71
2017-11-05T08:15:22.025Z,91.42
2017-11-05T08:17:51.240Z,91.55
2017-11-05T08:20:20.440Z,91.44
2017-11-05T08:22:50.383Z,91.28
2017-11-05T08:25:19.611Z,91.60
2017-11-05T08:27:49.624Z,91.57
2017-11-05T08:30:19.651Z,91.86
2017-11-05T08:32:48.873Z,92.06
2017-11-05T08:35:18.060Z,91.75
2017-11-05T08:37:47.306Z,91.73
2017-11-05T08:40:16.550Z,91.16
2017-11-05T08:42:45.745Z,91.32
2017-11-05T08:45:15.036Z,90.99
2017-11-05T08:47:44.264Z,91.29
2017-11-05T08:50:13.488Z,91.60
2017-11-05T08:52:42.681Z,90.92
2017-11-05T08:55:11.905Z,91.39
2017-11-05T08:57:41.119Z,91.27
2017-11-05T09:00:11.104Z,90.76
2017-11-05T09:02:40.353Z,89.56
2017-11-05T09:05:09.595Z,90.49
2017-11-05T09:07:38.902Z,91.28
2017-11-05T09:10:08.108Z,91.09
2017-11-05T09:12:37.328Z,90.99
2017-11-05T09:15:06.527Z,90.42
2017-11-05T09:17:36.027Z,89.71
2017-11-05T09:20:06.026Z,90.22
2017-11-05T09:22:35.237Z,89.83
2017-11-05T09:25:05.209Z,89.54
2017-11-05T09:27:34.610Z,88.65
2017-11-05T09:30:03.796Z,88.87
2017-11-05T09:32:33.027Z,88.80
2017-11-05T09:35:02.219Z,90.00
2017-11-05T09:37:31.424Z,88.14
2017-11-05T09:40:00.710Z,88.57
2017-11-05T09:42:30.201Z,88.77
2017-11-05T09:44:59.452Z,89.89
2017-11-05T09:47:29.460Z,87.58
2017-11-05T09:49:59.440Z,87.43
2017-11-05T09:52:28.762Z,88.50
2017-11-05T09:54:58.753Z,86.40
2017-11-05T09:57:27.967Z,86.90
2017-11-05T09:59:57.944Z,87.16
2017-11-05T10:02:27.944Z,87.54
2017-11-05T10:04:57.933Z,86.65
2017-11-05T10:07:27.864Z,87.19
2017-11-05T10:09:57.151Z,87.27
2017-11-05T10:12:26.379Z,87.88
2017-11-05T10:14:55.576Z,88.38
2017-11-05T10:17:24.816Z,88.34
2017-11-05T10:19:54.032Z,88.46
2017-11-05T10:22:24.016Z,87.36
2017-11-05T10:24:53.220Z,79.64
2017-11-05T10:27:22.426Z,82.96
2017-11-05T10:29:51.620Z,85.27
2017-11-05T10:32:20.863Z,86.86
2017-11-05T10:34:50.077Z,87.80
2017-11-05T10:37:19.275Z,85.25
2017-11-05T10:39:48.501Z,84.30
2017-11-05T10:42:17.739Z,85.17
2017-11-05T10:44:47.246Z,86.11
2017-11-05T10:47:16.426Z,85.63
2017-11-05T10:49:46.423Z,85.81
2017-11-05T10:52:15.657Z,86.69
2017-11-05T10:54:44.995Z,86.57
2017-11-05T10:57:14.196Z,86.27
2017-11-05T10:59:43.402Z,86.28
2017-11-05T11:02:12.716Z,85.51
2017-11-05T11:04:41.948Z,85.86
2017-11-05T11:07:12.022Z,86.72
2017-11-05T11:09:41.339Z,86.65
2017-11-05T11:12:10.603Z,87.11
2017-11-05T11:14:39.801Z,87.40
2017-11-05T11:17:09.052Z,87.12
2017-11-05T11:19:38.286Z,87.65
2017-11-05T11:22:07.480Z,87.87
2017-11-05T11:24:36.746Z,86.45
2017-11-05T11:27:05.951Z,85.88
2017-11-05T11:29:35.936Z,86.07
2017-11-05T11:32:05.224Z,86.77
2017-11-05T11:34:34.515Z,86.43
2017-11-05T11:37:03.713Z,85.60
2017-11-05T11:39:32.913Z,86.30
2017-11-05T11:42:02.138Z,84.48
2017-11-05T11:44:32.132Z,84.62
2017-11-05T11:47:02.215Z,86.03
2017-11-05T11:49:32.205Z,84.56
2017-11-05T11:52:01.412Z,84.52
2017-11-05T11:54:30.670Z,82.14
2017-11-05T11:56:59.865Z,84.46
2017-11-05T11:59:29.076Z,85.59
2017-11-05T12:01:58.330Z,85.40
2017-11-05T12:04:27.547Z,84.95
2017-11-05T12:06:56.759Z,85.87
2017-11-05T12:09:25.991Z,85.15
2017-11-05T12:11:55.264Z,85.65
2017-11-05T12:14:25.252Z,84.93
2017-11-05T12:16:54.490Z,85.36
2017-11-05T12:19:23.715Z,85.38
2017-11-05T12:21:52.931Z,85.01
2017-11-05T12:24:22.229Z,86.35
2017-11-05T12:26:51.408Z,84.92
2017-11-05T12:29:20.634Z,85.21
2017-11-05T12:31:49.853Z,83.07
2017-11-05T12:34:19.092Z,83.43
2017-11-05T12:36:49.076Z,83.68
2017-11-05T12:39:18.279Z,82.54
2017-11-05T12:41:47.467Z,83.88
2017-11-05T12:44:17.496Z,84.62
2017-11-05T12:46:47.705Z,82.30
2017-11-05T12:49:16.963Z,81.54
2017-11-05T12:51:46.155Z,81.87
2017-11-05T12:54:15.401Z,82.31
2017-11-05T12:56:45.584Z,83.24
2017-11-05T12:59:14.797Z,82.62
2017-11-05T13:01:44.779Z,82.07
2017-11-05T13:04:13.978Z,83.34
2017-11-05T13:06:43.224Z,80.27
2017-11-05T13:09:12.436Z,80.97
2017-11-05T13:11:42.454Z,82.78
2017-11-05T13:14:11.749Z,82.12
2017-11-05T13:16:40.980Z,79.67
2017-11-05T13:19:10.309Z,80.15
2017-11-05T13:21:39.539Z,82.15
2017-11-05T13:24:09.543Z,79.91
2017-11-05T13:26:38.929Z,78.65
2017-11-05T13:29:08.170Z,77.73
2017-11-05T13:31:38.181Z,79.24
2017-11-05T13:34:07.408Z,77.26
2017-11-05T13:36:36.662Z,76.64
2017-11-05T13:39:05.860Z,78.11
2017-11-05T13:41:35.889Z,78.34
2017-11-05T13:44:05.135Z,78.94
2017-11-05T13:46:34.635Z,76.13
2017-11-05T13:49:03.899Z,77.07
2017-11-05T13:51:33.244Z,77.92
2017-11-05T13:54:02.476Z,75.59
2017-11-05T13:56:31.715Z,78.08
2017-11-05T13:59:00.955Z,78.67
2017-11-05T14:01:30.213Z,76.83
2017-11-05T14:03:59.447Z,78.31
2017-11-05T14:06:28.687Z,78.69
2017-11-05T14:08:58.800Z,79.36
2017-11-05T14:11:28.957Z,77.39
2017-11-05T14:13:58.196Z,75.42
2017-11-05T14:16:27.448Z,76.31
2017-11-05T14:18:56.690Z,77.91
2017-11-05T14:21:25.931Z,77.78
2017-11-05T14:23:55.154Z,77.59
2017-11-05T14:26:24.372Z,77.46
2017-11-05T14:28:53.697Z,78.06
2017-11-05T14:31:22.936Z,78.83
2017-11-05T14:33:52.148Z,76.96
2017-11-05T14:36:21.367Z,75.70
2017-11-05T14:38:50.584Z,74.62
2017-11-05T14:41:19.805Z,74.60
2017-11-05T14:43:49.816Z,73.54
2017-11-05T14:46:19.796Z,74.62
2017-11-05T14:48:49.071Z,75.50
2017-11-05T14:51:18.315Z,75.70
2017-11-05T14:53:47.584Z,75.34
2017-11-05T14:56:16.832Z,76.69
2017-11-05T14:58:46.831Z,76.73
2017-11-05T15:01:16.055Z,75.60
2017-11-05T15:03:45.361Z,75.59
2017-11-05T15:06:14.749Z,75.35
2017-11-05T15:08:44.748Z,76.02
2017-11-05T15:11:14.738Z,77.43
2017-11-05T15:13:43.963Z,78.09
2017-11-05T15:16:13.168Z,76.77
2017-11-05T15:18:43.141Z,80.38
2017-11-05T15:21:12.414Z,79.32
2017-11-05T15:23:42.384Z,81.72
2017-11-05T15:26:11.631Z,77.40
2017-11-05T15:28:40.826Z,78.24
2017-11-05T15:31:10.050Z,76.06
2017-11-05T15:33:39.245Z,76.61
2017-11-05T15:36:08.431Z,78.55
2017-11-05T15:38:37.652Z,77.97
2017-11-05T15:41:06.879Z,79.48
2017-11-05T15:43:36.890Z,78.62
2017-11-05T15:46:06.844Z,78.82
2017-11-05T15:48:36.111Z,80.13
2017-11-05T15:51:06.070Z,79.32
2017-11-05T15:53:35.303Z,79.70
2017-11-05T15:56:04.667Z,78.73
2017-11-05T15:58:33.887Z,80.40
2017-11-05T16:01:03.121Z,80.26
2017-11-05T16:03:33.126Z,80.82
2017-11-05T16:06:02.359Z,81.19
2017-11-05T16:08:31.562Z,79.77
2017-11-05T16:11:00.772Z,80.95
2017-11-05T16:13:30.005Z,80.37
2017-11-05T16:15:59.220Z,80.95
2017-11-05T16:18:28.431Z,80.51
2017-11-05T16:20:57.659Z,80.04
2017-11-05T16:23:26.854Z,80.14
2017-11-05T16:25:56.125Z,79.86
2017-11-05T16:28:26.104Z,79.38
2017-11-05T16:30:55.447Z,78.99
2017-11-05T16:33:25.454Z,78.77
2017-11-05T16:35:55.437Z,79.57
2017-11-05T16:38:24.646Z,78.91
2017-11-05T16:40:54.693Z,80.09
2017-11-05T16:43:24.675Z,79.55
2017-11-05T16:45:53.943Z,79.25
2017-11-05T16:48:23.192Z,81.08
2017-11-05T16:50:52.383Z,78.13
2017-11-05T16:53:22.377Z,78.95
2017-11-05T16:55:51.611Z,77.40
2017-11-05T16:58:20.860Z,78.86
2017-11-05T17:00:50.440Z,77.92
2017-11-05T17:03:19.649Z,79.64
2017-11-05T17:05:48.881Z,79.29
2017-11-05T17:08:19.589Z,79.76
2017-11-05T17:10:49.595Z,78.99
2017-11-05T17:13:18.843Z,80.60
2017-11-05T17:15:48.116Z,79.79
2017-11-05T17:18:18.863Z,79.43
2017-11-05T17:20:48.139Z,80.50
2017-11-05T17:23:17.437Z,78.40
2017-11-05T17:25:46.609Z,79.27
2017-11-05T17:28:15.833Z,79.56
2017-11-05T17:30:45.055Z,79.87
2017-11-05T17:33:14.270Z,80.95
2017-11-05T17:35:43.477Z,80.83
2017-11-05T17:38:13.481Z,80.73
2017-11-05T17:40:43.460Z,81.49
2017-11-05T17:43:13.467Z,80.30
2017-11-05T17:45:42.678Z,82.24
2017-11-05T17:48:11.913Z,81.63
2017-11-05T17:50:41.915Z,81.79
2017-11-05T17:53:11.120Z,82.59
2017-11-05T17:55:41.112Z,82.12
2017-11-05T17:58:10.368Z,81.63
2017-11-05T18:00:39.591Z,82.40
2017-11-05T18:03:08.877Z,81.68
2017-11-05T18:05:38.141Z,82.40
2017-11-05T18:08:07.464Z,82.17
2017-11-05T18:10:36.663Z,82.75
2017-11-05T18:13:05.891Z,82.70
2017-11-05T18:15:35.116Z,81.68
2017-11-05T18:18:05.143Z,81.54
2017-11-05T18:20:35.245Z,81.94
2017-11-05T18:23:05.243Z,82.72
2017-11-05T18:25:34.467Z,82.42
2017-11-05T18:28:03.711Z,82.46
2017-11-05T18:30:32.949Z,83.00
2017-11-05T18:33:02.169Z,83.82
2017-11-05T18:35:32.157Z,83.67
2017-11-05T18:38:01.358Z,84.32
2017-11-05T18:40:30.562Z,83.25
2017-11-05T18:43:00.579Z,83.31
2017-11-05T18:45:29.780Z,83.85
2017-11-05T18:47:59.030Z,83.77
2017-11-05T18:50:28.272Z,84.10
2017-11-05T18:52:57.532Z,84.29
2017-11-05T18:55:26.775Z,84.51
2017-11-05T18:57:55.981Z,84.79
2017-11-05T19:00:26.010Z,85.07
2017-11-05T19:02:55.260Z,84.68
2017-11-05T19:05:24.516Z,84.57
2017-11-05T19:07:53.739Z,84.66
2017-11-05T19:10:22.949Z,84.49
2017-11-05T19:12:52.163Z,84.43
2017-11-05T19:15:21.442Z,84.76
2017-11-05T19:17:50.701Z,84.68
2017-11-05T19:20:19.949Z,84.74
2017-11-05T19:22:49.201Z,85.54
2017-11-05T19:25:18.422Z,85.62
2017-11-05T19:27:47.676Z,85.91
2017-11-05T19:30:17.669Z,85.86
2017-11-05T19:32:46.942Z,86.11
2017-11-05T19:35:16.144Z,86.14
2017-11-05T19:37:45.390Z,86.42
2017-11-05T19:40:15.426Z,86.35
2017-11-05T19:42:44.701Z,86.67
2017-11-05T19:45:14.711Z,86.60
2017-11-05T19:47:44.779Z,87.07
2017-11-05T19:50:14.033Z,87.06
2017-11-05T19:52:44.053Z,86.98
2017-11-05T19:55:14.075Z,86.83
2017-11-05T19:57:43.821Z,87.05
2017-11-05T20:00:13.926Z,87.30
2017-11-05T20:02:43.976Z,87.31
2017-11-05T20:05:13.266Z,86.93
2017-11-05T20:07:42.541Z,87.12
2017-11-05T20:10:11.745Z,87.27
2017-11-05T20:12:41.035Z,87.57
2017-11-05T20:15:10.267Z,87.53
2017-11-05T20:17:39.529Z,87.55
2017-11-05T20:20:08.790Z,87.57
2017-11-05T20:22:37.985Z,87.64
2017-11-05T20:25:07.250Z,87.39
2017-11-05T20:27:36.493Z,87.50
2017-11-05T20:30:06.484Z,87.51
2017-11-05T20:32:35.719Z,87.54
2017-11-05T20:35:05.711Z,87.68
2017-11-05T20:37:34.937Z,87.62
2017-11-05T20:40:04.193Z,87.73
2017-11-05T20:42:33.531Z,87.54
2017-11-05T20:45:03.547Z,87.02
2017-11-05T20:47:33.552Z,87.46
2017-11-05T20:50:02.792Z,87.63
2017-11-05T20:52:31.991Z,87.56
2017-11-05T20:55:01.237Z,87.80
2017-11-05T20:57:31.230Z,87.63
2017-11-05T21:00:00.733Z,87.72
2017-11-05T21:02:29.983Z,87.80
2017-11-05T21:04:59.214Z,87.62
2017-11-05T21:07:28.465Z,87.71
2017-11-05T21:09:58.482Z,87.07
2017-11-05T21:12:27.728Z,86.99
2017-11-05T21:14:57.715Z,87.38
2017-11-05T21:17:26.954Z,87.46
2017-11-05T21:19:56.167Z,87.37
2017-11-05T21:22:26.168Z,87.50
2017-11-05T21:24:55.383Z,87.32
2017-11-05T21:27:24.594Z,87.15
2017-11-05T21:29:54.578Z,87.10
2017-11-05T21:32:23.855Z,87.14
2017-11-05T21:34:53.098Z,87.11
2017-11-05T21:37:22.271Z,87.25
2017-11-05T21:39:51.504Z,86.75
2017-11-05T21:42:21.556Z,87.05
2017-11-05T21:44:50.800Z,86.97
2017-11-05T21:47:20.023Z,86.81
2017-11-05T21:49:50.051Z,87.04
2017-11-05T21:52:19.396Z,86.71
2017-11-05T21:54:48.623Z,87.13
2017-11-05T21:57:19.019Z,87.06
2017-11-05T21:59:48.260Z,86.84
2017-11-05T22:02:18.265Z,86.84
2017-11-05T22:04:48.319Z,86.69
2017-11-05T22:07:17.627Z,86.58
2017-11-05T22:09:46.815Z,86.45
2017-11-05T22:12:16.026Z,86.72
2017-11-05T22:14:45.272Z,86.75
2017-11-05T22:17:15.251Z,86.88
2017-11-05T22:19:44.487Z,86.78
2017-11-05T22:22:14.483Z,87.14
2017-11-05T22:24:43.706Z,86.84
2017-11-05T22:27:13.716Z,87.14
2017-11-05T22:29:43.734Z,87.25
2017-11-05T22:32:13.700Z,87.16
2017-11-05T22:34:42.976Z,86.95
2017-11-05T22:37:12.169Z,86.51
2017-11-05T22:39:41.411Z,86.61
2017-11-05T22:42:10.607Z,86.47
2017-11-05T22:44:39.849Z,86.82
2017-11-05T22:47:09.892Z,86.40
2017-11-05T22:49:39.335Z,86.80
2017-11-05T22:52:08.605Z,86.92
2017-11-05T22:54:37.845Z,87.10
2017-11-05T22:57:07.844Z,87.50
2017-11-05T22:59:38.588Z,87.60
2017-11-05T23:02:07.820Z,87.56
2017-11-05T23:04:37.784Z,87.58
2017-11-05T23:07:07.033Z,87.27
2017-11-05T23:09:37.152Z,86.99
2017-11-05T23:12:07.131Z,87.22
2017-11-05T23:14:36.344Z,87.45
2017-11-05T23:17:06.356Z,87.69
2017-11-05T23:19:35.627Z,87.87
2017-11-05T23:22:04.900Z,87.63
2017-11-05T23:24:34.120Z,88.20
2017-11-05T23:27:03.327Z,88.07
2017-11-05T23:29:32.546Z,88.01
2017-11-05T23:32:02.556Z,88.10
2017-11-05T23:34:31.743Z,87.89
2017-11-05T23:37:00.963Z,87.65
2017-11-05T23:39:31.027Z,88.01
2017-11-05T23:42:00.236Z,88.00
2017-11-05T23:44:29.450Z,88.01
2017-11-05T23:46:58.697Z,87.90
2017-11-05T23:49:27.909Z,88.11
2017-11-05T23:51:57.111Z,88.05
2017-11-05T23:54:26.319Z,87.98
2017-11-05T23:56:55.551Z,87.96
2017-11-05T23:59:25.535Z,88.06
